Latest Weather Observations for Hervey Bay

IDQ60801

Issued at 9:43 am EST Tuesday 7 December 2021 (issued every 10 minutes, with the page automatically refreshed every 10 minutes)

About weather observations | Map of weather stations | Latest weather observations for QLD | Other Formats
Station Details ID: 040405 Name: HERVEY BAY AIRPORT Lat: -25.32 Lon: 152.88 Height: 12.98 m
Data from the previous 72 hours. | See also: Recent months at Hervey Bay
Date/Time
EST
Temp
°C
App
Temp
°C
Dew
Point
°C
Rel
Hum
%
Delta-T
°C
Wind Press
QNH
hPa
Press
MSL
hPa
Rain since
9am
mm
Dir  Spd
km/h
Gust
km/h
Spd
kts
Gust
kts
07/09:30am 27.3 29.2 21.3 69 4.0 ESE 13 19 7 10 1013.1 1013.0 0.0
07/09:00am 27.0 28.9 21.3 71 3.8 ESE 13 22 7 12 1013.2 1013.1 1.8
07/08:30am 25.5 27.0 21.2 77 2.8 ESE 15 20 8 11 1012.8 1012.7 1.8
07/08:00am 24.4 27.5 21.5 84 1.9 SSW 7 9 4 5 1013.3 1013.2 1.8
07/07:30am 23.9 26.5 21.2 85 1.8 S 9 11 5 6 1013.5 1013.4 1.8
07/07:00am 22.6 24.8 20.5 88 1.4 S 9 11 5 6 1013.5 1013.4 1.8
07/06:30am 21.5 23.4 19.8 90 1.1 SSW 9 13 5 7 1013.7 1013.6 1.8
07/06:00am 20.6 22.3 19.3 92 0.8 SSW 9 15 5 8 1013.4 1013.3 1.8
07/05:30am 20.4 21.2 19.1 92 0.8 SSW 13 17 7 9 1013.5 1013.4 1.8
07/05:00am 20.1 20.8 18.9 93 0.8 SSW 13 19 7 10 1012.9 1012.8 1.8
07/04:30am 20.2 21.0 19.0 93 0.8 SSW 13 17 7 9 1013.0 1012.9 1.8
07/04:00am 20.2 21.7 19.0 93 0.8 SW 9 13 5 7 1012.7 1012.6 1.8
07/03:30am 20.4 21.7 19.2 93 0.8 SW 11 15 6 8 1012.7 1012.6 1.8
07/03:00am 20.5 21.8 19.3 93 0.8 SW 11 17 6 9 1012.6 1012.5 1.8
07/02:30am 20.5 21.8 19.3 93 0.8 SW 11 15 6 8 1012.8 1012.7 1.8
07/02:00am 20.6 21.9 19.4 93 0.8 SW 11 15 6 8 1012.9 1012.8 1.8
07/01:30am 20.8 22.6 19.6 93 0.8 SW 9 13 5 7 1013.0 1012.9 1.8
07/01:00am 20.7 22.1 19.5 93 0.8 SSW 11 13 6 7 1013.0 1012.9 1.8
07/12:30am 20.8 22.2 19.6 93 0.8 SSW 11 15 6 8 1013.1 1013.0 1.8
07/12:00am 21.1 22.6 19.7 92 0.9 SSW 11 15 6 8 1013.5 1013.4 1.8
 
Date/Time
EST
Temp
°C
App
Temp
°C
Dew
Point
°C
Rel
Hum
%
Delta-T
°C
Wind Press
QNH
hPa
Press
MSL
hPa
Rain since
9am
mm
Dir  Spd
km/h
Gust
km/h
Spd
kts
Gust
kts
06/11:30pm 21.2 22.7 19.8 92 0.9 SSW 11 13 6 7 1014.1 1014.0 1.8
06/11:00pm 21.4 23.4 19.9 91 1.0 SSW 9 13 5 7 1014.3 1014.2 1.8
06/10:30pm 21.7 23.3 20.0 90 1.1 SW 11 15 6 8 1014.7 1014.6 1.8
06/10:00pm 21.9 24.4 20.2 90 1.1 SW 7 9 4 5 1014.5 1014.4 1.8
06/09:30pm 22.1 24.3 20.4 90 1.1 SW 9 11 5 6 1014.2 1014.1 1.8
06/09:00pm 22.2 24.3 20.1 88 1.4 SSW 9 11 5 6 1013.8 1013.7 1.8
06/08:30pm 22.9 24.9 19.9 83 1.9 S 9 13 5 7 1013.4 1013.3 1.8
06/08:00pm 23.4 25.4 20.0 81 2.2 SSE 9 13 5 7 1013.3 1013.2 1.8
06/07:30pm 23.7 25.3 20.0 80 2.4 SSE 11 17 6 9 1013.0 1012.9 1.8
06/07:00pm 24.1 25.3 20.0 78 2.7 SE 13 24 7 13 1012.7 1012.6 1.8
06/06:30pm 24.3 25.1 19.8 76 2.9 SE 15 26 8 14 1012.9 1012.8 1.8
06/06:00pm 24.9 26.4 20.6 77 2.8 SE 13 22 7 12 1012.5 1012.4 1.8
06/05:30pm 25.1 25.9 19.9 73 3.4 SE 15 22 8 12 1012.3 1012.2 1.8
06/05:00pm 25.1 26.0 20.1 74 3.2 SSE 15 32 8 17 1011.9 1011.8 1.8
06/04:30pm 26.1 26.4 20.4 71 3.7 SE 19 32 10 17 1011.8 1011.7 1.8
06/04:00pm 26.2 27.3 21.2 74 3.3 SE 17 28 9 15 1011.8 1011.7 1.8
06/03:30pm 25.8 27.2 21.9 79 2.6 SSE 17 26 9 14 1012.1 1012.0 1.8
06/03:00pm 25.8 26.1 20.4 72 3.5 ESE 19 32 10 17 1012.2 1012.1 1.8
06/02:30pm 26.4 26.5 21.2 73 3.4 E 22 32 12 17 1012.3 1012.2 1.8
06/02:00pm 27.9 28.5 21.4 67 4.3 SE 20 33 11 18 1012.5 1012.4 1.8
06/01:30pm 26.8 26.8 20.2 67 4.3 SE 20 30 11 16 1012.8 1012.7 1.8
06/01:00pm 27.2 27.3 20.3 66 4.5 SE 20 32 11 17 1012.7 1012.6 1.8
06/12:30pm 26.8 26.8 20.9 70 3.9 SSE 22 33 12 18 1013.0 1012.9 1.8
06/12:00pm 26.1 27.1 21.1 74 3.3 SSE 17 26 9 14 1013.0 1012.9 1.8
06/11:30am 25.1 24.5 19.7 72 3.5 SE 22 33 12 18 1013.4 1013.3 1.6
06/11:00am 25.6 27.4 21.9 80 2.5 ESE 15 20 8 11 1013.6 1013.5 1.6
06/10:30am 23.4 24.4 21.1 87 1.5 ESE 17 26 9 14 1014.2 1014.1 1.6
06/10:23am 23.5 25.3 21.8 90 1.1 SE 15 24 8 13 1014.3 1014.2 1.6
06/10:00am 22.2 20.9 20.7 91 1.0 ESE 28 35 15 19 1014.3 1014.2 1.2
06/09:57am 22.4 21.1 20.7 90 1.1 ESE 28 35 15 19 1014.4 1014.3 0.4
06/09:30am 25.5 27.1 21.4 78 2.7 SSE 15 22 8 12 1014.4 1014.3 0.0
06/09:11am 25.4 26.7 21.7 80 2.5 SSE 17 24 9 13 1014.3 1014.2 0.0
06/09:00am 24.3 25.0 21.2 83 2.0 SE 19 33 10 18 1014.5 1014.4 0.0
06/08:30am 23.2 24.9 21.6 91 1.1 SSW 15 20 8 11 1014.5 1014.4 0.0
06/08:05am 22.4 24.1 21.0 92 0.9 SSW 13 19 7 10 1014.5 1014.4 0.0
06/08:03am 22.4 24.1 21.0 92 0.9 SSW 13 19 7 10 1014.5 1014.4 0.0
06/08:00am 22.7 24.6 21.3 92 0.9 SSW 13 19 7 10 1014.4 1014.3 0.0
06/07:43am 22.6 24.7 20.9 90 1.1 S 11 20 6 11 1014.4 1014.3 0.0
06/07:30am 22.9 24.1 20.6 87 1.5 SSW 15 20 8 11 1014.2 1014.1 0.0
06/07:17am 23.3 25.3 20.8 86 1.6 SSW 11 19 6 10 1014.1 1014.0 0.0
06/07:00am 22.5 23.7 20.6 89 1.2 SSW 15 22 8 12 1013.8 1013.7 0.0
06/06:41am 21.9 23.0 20.4 91 1.0 SSW 15 20 8 11 1013.6 1013.5 0.0
06/06:30am 21.7 23.0 20.2 91 1.0 SSW 13 19 7 10 1013.5 1013.4 0.0
06/06:00am 21.3 22.7 20.3 94 0.6 SSW 13 20 7 11 1013.2 1013.1 0.0
06/05:30am 20.5 22.4 19.7 95 0.5 SW 9 13 5 7 1013.0 1012.9 0.0
06/05:00am 20.6 22.8 19.6 94 0.6 SW 7 9 4 5 1012.6 1012.5 0.0
06/04:30am 21.0 22.9 19.8 93 0.8 SSW 9 11 5 6 1012.5 1012.4 0.0
06/04:00am 21.3 23.1 19.6 90 1.1 S 9 13 5 7 1012.4 1012.3 0.0
06/03:30am 21.3 23.3 19.9 92 0.9 S 9 13 5 7 1012.1 1012.0 0.0
06/03:00am 21.6 23.7 20.1 91 1.0 S 9 13 5 7 1011.9 1011.8 0.0
06/02:30am 21.8 23.0 19.9 89 1.2 S 13 20 7 11 1012.1 1012.0 0.0
06/02:00am 22.3 24.0 20.2 88 1.4 S 11 15 6 8 1012.4 1012.3 0.0
06/01:30am 22.2 24.3 20.1 88 1.4 S 9 11 5 6 1012.8 1012.7 0.0
06/01:00am 22.6 24.3 20.1 86 1.6 S 11 15 6 8 1013.3 1013.2 0.0
06/12:30am 22.7 24.9 20.4 87 1.5 S 9 13 5 7 1013.5 1013.4 0.0
06/12:00am 23.4 24.9 20.5 84 1.9 SSE 13 20 7 11 1013.3 1013.2 0.0
 
Date/Time
EST
Temp
°C
App
Temp
°C
Dew
Point
°C
Rel
Hum
%
Delta-T
°C
Wind Press
QNH
hPa
Press
MSL
hPa
Rain since
9am
mm
Dir  Spd
km/h
Gust
km/h
Spd
kts
Gust
kts
05/11:30pm 23.6 24.9 20.9 85 1.8 SE 15 30 8 16 1013.4 1013.3 0.0
05/11:00pm 23.6 25.1 20.5 83 2.0 SSE 13 20 7 11 1013.5 1013.4 0.0
05/10:30pm 23.7 24.7 20.2 81 2.3 SSE 15 22 8 12 1013.7 1013.6 0.0
05/10:00pm 23.7 25.7 20.8 84 1.9 SSE 11 17 6 9 1013.9 1013.8 0.0
05/09:30pm 23.8 25.9 20.9 84 1.9 SSE 11 17 6 9 1014.0 1013.9 0.0
05/09:00pm 24.1 26.2 21.0 83 2.0 SSE 11 15 6 8 1013.7 1013.6 0.0
05/08:30pm 24.1 24.9 20.6 81 2.3 SSE 17 28 9 15 1013.4 1013.3 0.0
05/08:00pm 24.0 25.4 21.1 84 1.9 SSE 15 24 8 13 1013.2 1013.1 0.0
05/07:30pm 24.1 25.5 21.0 83 2.0 SSE 15 24 8 13 1012.8 1012.7 0.0
05/07:00pm 24.4 24.7 20.5 79 2.5 SSE 19 35 10 19 1012.4 1012.3 0.0
05/06:30pm 24.6 25.8 20.7 79 2.6 SSE 15 26 8 14 1012.4 1012.3 0.0
05/06:00pm 25.0 26.0 21.1 79 2.6 SE 17 28 9 15 1011.7 1011.6 0.0
05/05:30pm 25.1 26.8 21.0 78 2.7 SE 13 20 7 11 1011.6 1011.5 0.0
05/05:00pm 25.3 25.6 20.5 75 3.1 SE 19 28 10 15 1011.4 1011.3 0.0
05/04:30pm 25.9 26.3 20.7 73 3.4 SE 19 33 10 18 1011.0 1010.9 0.0
05/04:00pm 26.6 26.9 20.7 70 3.9 SSE 20 32 11 17 1011.2 1011.1 0.0
05/03:30pm 26.5 26.7 20.6 70 3.9 SE 20 35 11 19 1011.0 1010.9 0.0
05/03:00pm 26.8 26.2 18.9 62 5.1 SSE 20 37 11 20 1011.1 1011.0 0.0
05/02:30pm 27.6 27.3 20.4 65 4.7 SSE 22 39 12 21 1011.3 1011.2 0.0
05/02:00pm 28.0 27.3 20.3 63 5.1 SE 24 37 13 20 1011.3 1011.2 0.0
05/01:30pm 27.6 27.1 19.9 63 5.0 SSE 22 33 12 18 1011.6 1011.5 0.0
05/01:00pm 27.6 26.6 19.7 62 5.1 SSE 24 37 13 20 1011.9 1011.8 0.0
05/12:30pm 27.2 27.4 20.5 67 4.4 SSE 20 33 11 18 1012.3 1012.2 0.0
05/12:00pm 26.3 25.7 20.4 70 3.9 SE 24 32 13 17 1012.6 1012.5 0.0
05/11:30am 27.1 26.6 20.7 68 4.2 SE 24 35 13 19 1012.8 1012.7 0.0
05/11:00am 27.0 27.6 21.1 70 3.9 SSE 19 30 10 16 1012.8 1012.7 0.0
05/10:30am 26.5 27.9 21.0 72 3.6 SSE 15 26 8 14 1012.7 1012.6 0.0
05/10:00am 27.3 29.3 22.9 77 3.0 SSE 17 28 9 15 1013.0 1012.9 0.0
05/09:30am 25.8 26.8 21.0 75 3.2 S 17 30 9 16 1013.0 1012.9 0.0
05/09:00am 25.9 27.4 21.3 76 3.0 SSW 15 22 8 12 1012.8 1012.7 7.2
05/08:30am 25.4 26.7 20.9 76 3.0 S 15 24 8 13 1012.6 1012.5 7.2
05/08:00am 24.8 26.1 20.9 79 2.6 S 15 24 8 13 1012.7 1012.6 7.0
05/07:30am 24.0 25.3 20.1 79 2.5 SSW 13 20 7 11 1012.7 1012.6 7.0
05/07:00am 23.3 24.4 19.7 80 2.3 SSW 13 22 7 12 1012.6 1012.5 7.0
05/06:30am 22.1 22.8 19.6 86 1.6 SSW 15 22 8 12 1012.3 1012.2 7.0
05/06:00am 21.7 23.0 20.2 91 1.0 SSW 13 22 7 12 1011.7 1011.6 7.0
05/05:30am 20.5 21.5 19.5 94 0.6 SSW 13 22 7 12 1011.3 1011.2 7.0
05/05:00am 20.1 21.3 19.1 94 0.6 SSW 11 17 6 9 1010.9 1010.8 7.0
05/04:30am 20.3 20.7 19.0 92 0.8 SSW 15 20 8 11 1010.4 1010.3 7.0
05/04:00am 21.7 23.7 20.0 90 1.1 SSW 9 11 5 6 1009.6 1009.5 7.0
05/03:30am 23.0 25.7 20.7 87 1.5 NE 7 13 4 7 1009.2 1009.1 7.0
05/03:00am 22.8 25.3 19.8 83 1.9 N 6 11 3 6 1009.2 1009.1 7.0
05/02:30am 23.3 24.2 20.1 82 2.1 ENE 15 24 8 13 1008.4 1008.3 7.0
05/02:00am 23.1 22.0 19.5 80 2.3 ENE 24 37 13 20 1009.1 1009.0 7.0
05/01:47am 22.9 22.0 19.9 83 1.9 E 24 33 13 18 1009.5 1009.4 6.8
05/01:40am 22.9 22.0 19.9 83 1.9 E 24 37 13 20 1010.0 1009.9 6.8
05/01:30am 22.8 22.2 21.3 91 1.0 E 26 35 14 19 1010.1 1010.0 6.8
05/01:07am 21.8 21.5 19.5 87 1.5 S 20 30 11 16 1012.1 1012.0 0.8
05/01:00am 22.9 23.1 20.6 87 1.5 S 20 32 11 17 1011.9 1011.8 0.0
05/12:42am 24.4 24.7 20.3 78 2.7 SSE 19 32 10 17 1012.0 1011.9 0.0
05/12:30am 24.6 25.7 20.5 78 2.7 SSE 15 24 8 13 1012.0 1011.9 0.0
05/12:00am 24.4 25.8 21.1 82 2.2 SE 15 22 8 12 1011.9 1011.8 0.0
 
Date/Time
EST
Temp
°C
App
Temp
°C
Dew
Point
°C
Rel
Hum
%
Delta-T
°C
Wind Press
QNH
hPa
Press
MSL
hPa
Rain since
9am
mm
Dir  Spd
km/h
Gust
km/h
Spd
kts
Gust
kts
04/11:30pm 24.1 26.0 21.4 85 1.8 SSE 13 17 7 9 1012.4 1012.3 0.0
04/11:00pm 22.7 25.6 21.0 90 1.1 SW 7 13 4 7 1012.1 1012.0 0.0
04/10:30pm 24.2 27.0 20.9 82 2.2 ENE 7 11 4 6 1011.2 1011.1 0.0
04/10:00pm 22.9 27.0 20.8 88 1.4 CALM 0 9 0 5 1011.5 1011.4 0.0
04/09:30pm 24.3 27.1 20.8 81 2.3 E 7 11 4 6 1011.6 1011.5 0.0
04/09:00pm 24.2 27.1 20.7 81 2.3 ENE 6 9 3 5 1011.3 1011.2 0.0
04/08:30pm 24.4 27.2 20.5 79 2.5 E 6 9 3 5 1011.0 1010.9 0.0
04/08:00pm 24.8 26.2 20.3 76 2.9 ENE 13 15 7 8 1010.2 1010.1 0.0
04/07:30pm 24.9 26.1 19.9 74 3.2 ENE 13 17 7 9 1009.8 1009.7 0.0
04/07:00pm 25.2 26.5 19.3 70 3.8 E 11 17 6 9 1009.6 1009.5 0.0
04/06:30pm 25.7 26.5 19.1 67 4.2 ENE 13 17 7 9 1009.5 1009.4 0.0
04/06:00pm 26.2 27.3 19.6 67 4.3 E 13 19 7 10 1009.3 1009.2 0.0
04/05:30pm 27.3 28.1 19.9 64 4.8 E 15 22 8 12 1009.0 1008.9 0.0
04/05:00pm 27.8 27.5 19.6 61 5.3 ESE 20 26 11 14 1008.9 1008.8 0.0
04/04:30pm 28.5 29.1 21.0 64 5.0 E 19 28 10 15 1008.8 1008.7 0.0
04/04:00pm 28.6 29.1 21.1 64 5.0 E 20 26 11 14 1008.8 1008.7 0.0
04/03:30pm 28.8 28.7 20.8 62 5.3 ESE 22 28 12 15 1009.0 1008.9 0.0
04/03:00pm 29.2 29.6 20.6 59 5.7 E 19 26 10 14 1009.4 1009.3 0.0
04/02:30pm 29.1 29.2 20.3 59 5.8 ESE 20 28 11 15 1009.8 1009.7 0.0
04/02:00pm 29.8 30.0 20.1 56 6.4 ESE 19 28 10 15 1009.9 1009.8 0.0
04/01:30pm 29.4 29.7 20.3 58 6.0 ESE 19 32 10 17 1010.3 1010.2 0.0
04/01:00pm 28.9 29.8 20.1 59 5.8 SE 15 20 8 11 1010.7 1010.6 0.0
04/12:30pm 28.7 28.8 19.9 59 5.8 E 19 28 10 15 1010.9 1010.8 0.0
04/12:00pm 29.1 29.7 19.4 55 6.3 E 15 24 8 13 1011.2 1011.1 0.0
04/11:30am 28.6 29.2 19.5 58 5.9 SE 15 22 8 12 1011.8 1011.7 0.0
04/11:00am 28.5 29.8 20.2 60 5.5 SE 13 19 7 10 1012.2 1012.1 0.0
04/10:30am 27.7 28.3 19.5 61 5.3 SE 15 28 8 15 1012.5 1012.4 0.0
04/10:00am 27.4 28.3 19.2 61 5.3 SSE 13 20 7 11 1012.8 1012.7 0.0

Other formats

Comma delimited format used in spreadsheet applications
http://www.bom.gov.au/fwo/IDQ60801/IDQ60801.95565.axf

JavaScript Object Notation format (JSON) in row-major order
http://www.bom.gov.au/fwo/IDQ60801/IDQ60801.95565.json

Data quality

Most of these data are generated automatically and are frequently updated. Quality checks on data are not normally performed. It is possible for incorrect values to appear. Refer to information at About Latest Weather Observations and please check the disclaimer before using these data.